sensor_id;sensor_type;location;lat;lon;timestamp;P1;durP1;ratioP1;P2;durP2;ratioP2
2848;SDS011;59355;52.416;13.412;2023-02-24T00:01:11;67.50;;;31.37;;
2848;SDS011;59355;52.416;13.412;2023-02-24T00:03:37;57.80;;;28.00;;
2848;SDS011;59355;52.416;13.412;2023-02-24T00:06:08;58.00;;;27.60;;
2848;SDS011;59355;52.416;13.412;2023-02-24T00:08:35;76.70;;;30.10;;
2848;SDS011;59355;52.416;13.412;2023-02-24T00:11:07;69.77;;;33.10;;
2848;SDS011;59355;52.416;13.412;2023-02-24T00:13:34;62.53;;;27.57;;
2848;SDS011;59355;52.416;13.412;2023-02-24T00:16:00;74.87;;;30.83;;
2848;SDS011;59355;52.416;13.412;2023-02-24T00:18:26;65.77;;;28.60;;
2848;SDS011;59355;52.416;13.412;2023-02-24T00:20:52;72.43;;;29.80;;
2848;SDS011;59355;52.416;13.412;2023-02-24T00:23:20;53.13;;;27.43;;
2848;SDS011;59355;52.416;13.412;2023-02-24T00:25:47;61.60;;;26.93;;
2848;SDS011;59355;52.416;13.412;2023-02-24T00:28:13;61.13;;;28.47;;
2848;SDS011;59355;52.416;13.412;2023-02-24T00:30:38;60.13;;;27.03;;
2848;SDS011;59355;52.416;13.412;2023-02-24T00:33:04;54.27;;;24.30;;
2848;SDS011;59355;52.416;13.412;2023-02-24T00:35:30;62.20;;;26.30;;
2848;SDS011;59355;52.416;13.412;2023-02-24T00:37:56;54.87;;;26.60;;
2848;SDS011;59355;52.416;13.412;2023-02-24T00:40:21;53.83;;;25.10;;
2848;SDS011;59355;52.416;13.412;2023-02-24T00:42:47;59.37;;;25.73;;
2848;SDS011;59355;52.416;13.412;2023-02-24T00:45:13;50.67;;;24.93;;
2848;SDS011;59355;52.416;13.412;2023-02-24T00:47:40;53.63;;;24.03;;
2848;SDS011;59355;52.416;13.412;2023-02-24T00:50:06;48.77;;;24.73;;
2848;SDS011;59355;52.416;13.412;2023-02-24T00:52:32;51.80;;;23.77;;
2848;SDS011;59355;52.416;13.412;2023-02-24T00:54:57;54.63;;;25.27;;
2848;SDS011;59355;52.416;13.412;2023-02-24T00:57:23;54.80;;;25.23;;
2848;SDS011;59355;52.416;13.412;2023-02-24T00:59:48;51.43;;;23.73;;
2848;SDS011;59355;52.416;13.412;2023-02-24T01:02:15;40.53;;;20.70;;
2848;SDS011;59355;52.416;13.412;2023-02-24T01:04:41;40.53;;;20.93;;
2848;SDS011;59355;52.416;13.412;2023-02-24T01:07:08;48.80;;;20.33;;
2848;SDS011;59355;52.416;13.412;2023-02-24T01:09:35;42.83;;;20.57;;
2848;SDS011;59355;52.416;13.412;2023-02-24T01:12:01;40.13;;;19.63;;
2848;SDS011;59355;52.416;13.412;2023-02-24T01:14:45;36.10;;;17.07;;
2848;SDS011;59355;52.416;13.412;2023-02-24T01:17:12;34.23;;;17.13;;
2848;SDS011;59355;52.416;13.412;2023-02-24T01:19:38;28.77;;;14.33;;
2848;SDS011;59355;52.416;13.412;2023-02-24T01:22:05;34.53;;;16.23;;
2848;SDS011;59355;52.416;13.412;2023-02-24T01:24:34;24.87;;;14.60;;
2848;SDS011;59355;52.416;13.412;2023-02-24T01:27:04;26.67;;;13.17;;
2848;SDS011;59355;52.416;13.412;2023-02-24T01:29:29;21.43;;;12.30;;
2848;SDS011;59355;52.416;13.412;2023-02-24T01:31:55;34.63;;;11.00;;
2848;SDS011;59355;52.416;13.412;2023-02-24T01:34:23;25.77;;;12.00;;
2848;SDS011;59355;52.416;13.412;2023-02-24T01:36:52;24.83;;;10.50;;
2848;SDS011;59355;52.416;13.412;2023-02-24T01:39:17;19.83;;;9.00;;
2848;SDS011;59355;52.416;13.412;2023-02-24T01:41:44;23.87;;;10.37;;
2848;SDS011;59355;52.416;13.412;2023-02-24T01:46:38;16.57;;;7.73;;
2848;SDS011;59355;52.416;13.412;2023-02-24T01:49:06;20.67;;;7.70;;
2848;SDS011;59355;52.416;13.412;2023-02-24T01:51:35;14.70;;;7.83;;
2848;SDS011;59355;52.416;13.412;2023-02-24T01:54:03;16.17;;;8.07;;
2848;SDS011;59355;52.416;13.412;2023-02-24T01:56:30;29.33;;;10.10;;
2848;SDS011;59355;52.416;13.412;2023-02-24T01:58:56;29.47;;;8.70;;
2848;SDS011;59355;52.416;13.412;2023-02-24T02:01:23;21.33;;;7.97;;
2848;SDS011;59355;52.416;13.412;2023-02-24T02:03:49;25.83;;;9.17;;
2848;SDS011;59355;52.416;13.412;2023-02-24T02:06:15;18.87;;;7.67;;
2848;SDS011;59355;52.416;13.412;2023-02-24T02:08:43;17.10;;;8.83;;
2848;SDS011;59355;52.416;13.412;2023-02-24T02:11:11;18.70;;;8.40;;
2848;SDS011;59355;52.416;13.412;2023-02-24T02:13:39;18.10;;;7.40;;
2848;SDS011;59355;52.416;13.412;2023-02-24T02:27:14;14.03;;;6.03;;
2848;SDS011;59355;52.416;13.412;2023-02-24T02:29:49;16.10;;;5.63;;
2848;SDS011;59355;52.416;13.412;2023-02-24T02:40:41;21.73;;;5.93;;
2848;SDS011;59355;52.416;13.412;2023-02-24T02:46:16;10.83;;;4.40;;
2848;SDS011;59355;52.416;13.412;2023-02-24T02:48:58;20.47;;;5.37;;
2848;SDS011;59355;52.416;13.412;2023-02-24T02:51:46;17.57;;;4.43;;
2848;SDS011;59355;52.416;13.412;2023-02-24T02:54:17;18.40;;;5.60;;
2848;SDS011;59355;52.416;13.412;2023-02-24T02:56:46;11.13;;;4.60;;
2848;SDS011;59355;52.416;13.412;2023-02-24T02:59:15;9.97;;;3.97;;
2848;SDS011;59355;52.416;13.412;2023-02-24T03:01:46;10.70;;;4.50;;
2848;SDS011;59355;52.416;13.412;2023-02-24T03:04:12;10.87;;;3.50;;
2848;SDS011;59355;52.416;13.412;2023-02-24T03:06:46;7.90;;;3.93;;
2848;SDS011;59355;52.416;13.412;2023-02-24T03:09:18;13.90;;;4.37;;
2848;SDS011;59355;52.416;13.412;2023-02-24T03:11:47;8.03;;;3.67;;
2848;SDS011;59355;52.416;13.412;2023-02-24T03:14:18;10.03;;;4.30;;
2848;SDS011;59355;52.416;13.412;2023-02-24T03:16:49;10.90;;;3.90;;
2848;SDS011;59355;52.416;13.412;2023-02-24T03:19:17;8.97;;;3.83;;
2848;SDS011;59355;52.416;13.412;2023-02-24T03:21:45;9.83;;;4.60;;
2848;SDS011;59355;52.416;13.412;2023-02-24T03:24:16;13.70;;;3.60;;
2848;SDS011;59355;52.416;13.412;2023-02-24T03:26:51;10.10;;;5.00;;
2848;SDS011;59355;52.416;13.412;2023-02-24T03:29:28;16.23;;;4.70;;
2848;SDS011;59355;52.416;13.412;2023-02-24T03:32:15;15.20;;;3.93;;
2848;SDS011;59355;52.416;13.412;2023-02-24T03:34:55;9.23;;;4.67;;
2848;SDS011;59355;52.416;13.412;2023-02-24T03:37:24;14.60;;;5.47;;
2848;SDS011;59355;52.416;13.412;2023-02-24T03:39:59;10.83;;;3.90;;
2848;SDS011;59355;52.416;13.412;2023-02-24T03:42:35;12.23;;;4.77;;
2848;SDS011;59355;52.416;13.412;2023-02-24T03:45:02;12.47;;;4.07;;
2848;SDS011;59355;52.416;13.412;2023-02-24T03:47:30;5.83;;;3.33;;
2848;SDS011;59355;52.416;13.412;2023-02-24T03:49:56;10.43;;;5.07;;
2848;SDS011;59355;52.416;13.412;2023-02-24T03:52:37;8.63;;;4.80;;
2848;SDS011;59355;52.416;13.412;2023-02-24T03:58:01;12.13;;;4.67;;
2848;SDS011;59355;52.416;13.412;2023-02-24T04:12:07;11.10;;;5.37;;
2848;SDS011;59355;52.416;13.412;2023-02-24T04:14:51;11.93;;;4.43;;
2848;SDS011;59355;52.416;13.412;2023-02-24T04:17:22;15.20;;;4.20;;
2848;SDS011;59355;52.416;13.412;2023-02-24T04:19:54;9.70;;;3.87;;
2848;SDS011;59355;52.416;13.412;2023-02-24T04:22:23;10.40;;;5.40;;
2848;SDS011;59355;52.416;13.412;2023-02-24T04:24:51;13.30;;;6.37;;
2848;SDS011;59355;52.416;13.412;2023-02-24T04:27:19;11.80;;;4.87;;
2848;SDS011;59355;52.416;13.412;2023-02-24T04:29:46;13.03;;;5.53;;
2848;SDS011;59355;52.416;13.412;2023-02-24T04:32:16;20.57;;;5.80;;
2848;SDS011;59355;52.416;13.412;2023-02-24T04:34:43;8.10;;;4.43;;
2848;SDS011;59355;52.416;13.412;2023-02-24T04:37:09;11.90;;;4.30;;
2848;SDS011;59355;52.416;13.412;2023-02-24T04:39:35;16.60;;;4.40;;
2848;SDS011;59355;52.416;13.412;2023-02-24T04:42:03;9.00;;;4.47;;
2848;SDS011;59355;52.416;13.412;2023-02-24T04:44:29;11.23;;;4.50;;
2848;SDS011;59355;52.416;13.412;2023-02-24T04:46:56;13.27;;;4.70;;
2848;SDS011;59355;52.416;13.412;2023-02-24T04:49:22;7.43;;;4.57;;
2848;SDS011;59355;52.416;13.412;2023-02-24T04:51:47;9.10;;;3.57;;
2848;SDS011;59355;52.416;13.412;2023-02-24T04:54:14;8.47;;;3.77;;
2848;SDS011;59355;52.416;13.412;2023-02-24T04:56:44;8.33;;;3.50;;
2848;SDS011;59355;52.416;13.412;2023-02-24T04:59:11;8.53;;;4.10;;
2848;SDS011;59355;52.416;13.412;2023-02-24T05:01:38;10.57;;;4.27;;
2848;SDS011;59355;52.416;13.412;2023-02-24T05:04:05;5.70;;;3.87;;
2848;SDS011;59355;52.416;13.412;2023-02-24T05:06:31;11.07;;;3.77;;
2848;SDS011;59355;52.416;13.412;2023-02-24T05:08:56;10.97;;;3.83;;
2848;SDS011;59355;52.416;13.412;2023-02-24T05:11:21;8.33;;;4.30;;
2848;SDS011;59355;52.416;13.412;2023-02-24T05:13:47;9.43;;;3.40;;
2848;SDS011;59355;52.416;13.412;2023-02-24T05:16:14;16.27;;;4.10;;
2848;SDS011;59355;52.416;13.412;2023-02-24T05:18:40;5.70;;;2.77;;
2848;SDS011;59355;52.416;13.412;2023-02-24T05:21:13;11.83;;;3.37;;
2848;SDS011;59355;52.416;13.412;2023-02-24T05:23:58;5.73;;;4.43;;
2848;SDS011;59355;52.416;13.412;2023-02-24T05:26:30;12.83;;;4.40;;
2848;SDS011;59355;52.416;13.412;2023-02-24T05:28:56;9.90;;;3.80;;
2848;SDS011;59355;52.416;13.412;2023-02-24T05:31:24;6.97;;;4.17;;
2848;SDS011;59355;52.416;13.412;2023-02-24T05:33:52;4.90;;;3.60;;
2848;SDS011;59355;52.416;13.412;2023-02-24T05:36:20;11.63;;;3.57;;
2848;SDS011;59355;52.416;13.412;2023-02-24T05:38:46;10.57;;;3.80;;
2848;SDS011;59355;52.416;13.412;2023-02-24T05:41:16;6.23;;;3.13;;
2848;SDS011;59355;52.416;13.412;2023-02-24T05:43:46;7.93;;;3.27;;
2848;SDS011;59355;52.416;13.412;2023-02-24T05:46:19;9.00;;;3.20;;
2848;SDS011;59355;52.416;13.412;2023-02-24T05:48:51;7.57;;;3.10;;
2848;SDS011;59355;52.416;13.412;2023-02-24T05:51:20;13.57;;;3.60;;
2848;SDS011;59355;52.416;13.412;2023-02-24T05:53:47;6.13;;;3.23;;
2848;SDS011;59355;52.416;13.412;2023-02-24T05:56:12;8.50;;;4.63;;
2848;SDS011;59355;52.416;13.412;2023-02-24T05:58:38;7.63;;;3.20;;
2848;SDS011;59355;52.416;13.412;2023-02-24T06:01:12;6.90;;;3.10;;
2848;SDS011;59355;52.416;13.412;2023-02-24T06:03:43;9.53;;;2.57;;
2848;SDS011;59355;52.416;13.412;2023-02-24T06:06:11;6.67;;;3.27;;
2848;SDS011;59355;52.416;13.412;2023-02-24T06:08:38;12.13;;;3.70;;
2848;SDS011;59355;52.416;13.412;2023-02-24T06:11:13;6.90;;;3.30;;
2848;SDS011;59355;52.416;13.412;2023-02-24T06:13:40;7.50;;;3.13;;
2848;SDS011;59355;52.416;13.412;2023-02-24T06:16:11;9.47;;;2.40;;
2848;SDS011;59355;52.416;13.412;2023-02-24T06:18:37;6.43;;;3.30;;
2848;SDS011;59355;52.416;13.412;2023-02-24T06:21:02;5.27;;;2.70;;
2848;SDS011;59355;52.416;13.412;2023-02-24T06:23:28;6.83;;;3.00;;
2848;SDS011;59355;52.416;13.412;2023-02-24T06:25:53;6.00;;;2.53;;
2848;SDS011;59355;52.416;13.412;2023-02-24T06:28:21;5.80;;;2.90;;
2848;SDS011;59355;52.416;13.412;2023-02-24T06:30:47;5.33;;;2.77;;
2848;SDS011;59355;52.416;13.412;2023-02-24T06:33:13;8.77;;;3.10;;
2848;SDS011;59355;52.416;13.412;2023-02-24T06:35:38;6.03;;;2.97;;
2848;SDS011;59355;52.416;13.412;2023-02-24T06:38:03;17.00;;;3.23;;
2848;SDS011;59355;52.416;13.412;2023-02-24T06:40:29;5.07;;;2.43;;
2848;SDS011;59355;52.416;13.412;2023-02-24T06:42:55;5.57;;;2.07;;
2848;SDS011;59355;52.416;13.412;2023-02-24T06:45:21;9.43;;;2.70;;
2848;SDS011;59355;52.416;13.412;2023-02-24T06:47:48;6.33;;;2.43;;
2848;SDS011;59355;52.416;13.412;2023-02-24T06:50:15;11.03;;;3.90;;
2848;SDS011;59355;52.416;13.412;2023-02-24T06:52:44;6.90;;;2.73;;
2848;SDS011;59355;52.416;13.412;2023-02-24T06:55:09;5.33;;;3.20;;
2848;SDS011;59355;52.416;13.412;2023-02-24T06:57:51;9.53;;;2.67;;
2848;SDS011;59355;52.416;13.412;2023-02-24T07:00:17;6.67;;;2.70;;
2848;SDS011;59355;52.416;13.412;2023-02-24T07:02:49;9.30;;;3.50;;
2848;SDS011;59355;52.416;13.412;2023-02-24T07:05:14;6.93;;;2.77;;
2848;SDS011;59355;52.416;13.412;2023-02-24T07:07:40;4.50;;;2.20;;
2848;SDS011;59355;52.416;13.412;2023-02-24T07:10:10;7.70;;;3.00;;
2848;SDS011;59355;52.416;13.412;2023-02-24T07:12:35;5.53;;;2.47;;
2848;SDS011;59355;52.416;13.412;2023-02-24T07:15:01;4.20;;;2.60;;
2848;SDS011;59355;52.416;13.412;2023-02-24T07:17:26;5.87;;;3.20;;
2848;SDS011;59355;52.416;13.412;2023-02-24T07:19:51;7.30;;;3.37;;
2848;SDS011;59355;52.416;13.412;2023-02-24T07:22:18;6.17;;;2.60;;
2848;SDS011;59355;52.416;13.412;2023-02-24T07:24:48;5.40;;;2.73;;
2848;SDS011;59355;52.416;13.412;2023-02-24T07:27:14;8.73;;;3.10;;
2848;SDS011;59355;52.416;13.412;2023-02-24T07:29:47;9.63;;;2.43;;
2848;SDS011;59355;52.416;13.412;2023-02-24T07:32:15;7.80;;;2.93;;
2848;SDS011;59355;52.416;13.412;2023-02-24T07:34:41;6.60;;;3.00;;
2848;SDS011;59355;52.416;13.412;2023-02-24T07:37:07;4.70;;;2.77;;
2848;SDS011;59355;52.416;13.412;2023-02-24T07:39:33;7.13;;;3.50;;
2848;SDS011;59355;52.416;13.412;2023-02-24T07:42:00;6.23;;;3.50;;
2848;SDS011;59355;52.416;13.412;2023-02-24T07:44:26;6.40;;;3.37;;
2848;SDS011;59355;52.416;13.412;2023-02-24T07:46:53;12.10;;;3.93;;
2848;SDS011;59355;52.416;13.412;2023-02-24T07:49:20;5.50;;;2.83;;
2848;SDS011;59355;52.416;13.412;2023-02-24T07:51:47;9.83;;;3.40;;
2848;SDS011;59355;52.416;13.412;2023-02-24T07:54:16;7.63;;;4.00;;
2848;SDS011;59355;52.416;13.412;2023-02-24T07:56:42;6.07;;;3.17;;
2848;SDS011;59355;52.416;13.412;2023-02-24T07:59:12;14.50;;;4.23;;
2848;SDS011;59355;52.416;13.412;2023-02-24T08:01:43;9.93;;;4.20;;
2848;SDS011;59355;52.416;13.412;2023-02-24T08:04:13;6.60;;;3.27;;
2848;SDS011;59355;52.416;13.412;2023-02-24T08:06:40;5.80;;;2.63;;
2848;SDS011;59355;52.416;13.412;2023-02-24T08:09:12;6.60;;;3.30;;
2848;SDS011;59355;52.416;13.412;2023-02-24T08:11:43;6.17;;;3.03;;
2848;SDS011;59355;52.416;13.412;2023-02-24T08:14:16;8.33;;;3.17;;
2848;SDS011;59355;52.416;13.412;2023-02-24T08:16:43;9.67;;;3.20;;
2848;SDS011;59355;52.416;13.412;2023-02-24T08:19:10;7.40;;;3.10;;
2848;SDS011;59355;52.416;13.412;2023-02-24T08:21:40;6.00;;;3.37;;
2848;SDS011;59355;52.416;13.412;2023-02-24T08:24:12;10.00;;;4.23;;
2848;SDS011;59355;52.416;13.412;2023-02-24T08:26:42;10.40;;;2.90;;
2848;SDS011;59355;52.416;13.412;2023-02-24T08:29:08;5.90;;;3.30;;
2848;SDS011;59355;52.416;13.412;2023-02-24T08:31:34;9.40;;;3.50;;
2848;SDS011;59355;52.416;13.412;2023-02-24T08:33:59;9.43;;;3.20;;
2848;SDS011;59355;52.416;13.412;2023-02-24T08:36:25;8.43;;;3.33;;
2848;SDS011;59355;52.416;13.412;2023-02-24T08:38:51;7.83;;;3.00;;
2848;SDS011;59355;52.416;13.412;2023-02-24T08:41:17;8.23;;;3.20;;
2848;SDS011;59355;52.416;13.412;2023-02-24T08:43:45;4.37;;;2.73;;
2848;SDS011;59355;52.416;13.412;2023-02-24T08:46:13;7.07;;;3.03;;
2848;SDS011;59355;52.416;13.412;2023-02-24T08:48:52;4.90;;;3.10;;
2848;SDS011;59355;52.416;13.412;2023-02-24T08:51:25;5.53;;;3.17;;
2848;SDS011;59355;52.416;13.412;2023-02-24T08:53:54;9.40;;;4.23;;
2848;SDS011;59355;52.416;13.412;2023-02-24T08:56:26;61.90;;;51.23;;
2848;SDS011;59355;52.416;13.412;2023-02-24T08:58:53;5.93;;;5.13;;
2848;SDS011;59355;52.416;13.412;2023-02-24T09:01:22;8.13;;;4.20;;
2848;SDS011;59355;52.416;13.412;2023-02-24T09:03:59;8.50;;;3.30;;
2848;SDS011;59355;52.416;13.412;2023-02-24T09:06:35;6.07;;;4.67;;
2848;SDS011;59355;52.416;13.412;2023-02-24T09:09:01;7.53;;;3.80;;
2848;SDS011;59355;52.416;13.412;2023-02-24T09:11:42;6.57;;;3.60;;
2848;SDS011;59355;52.416;13.412;2023-02-24T09:14:30;4.50;;;3.10;;
2848;SDS011;59355;52.416;13.412;2023-02-24T09:17:00;4.63;;;3.87;;
2848;SDS011;59355;52.416;13.412;2023-02-24T09:19:30;9.53;;;4.80;;
2848;SDS011;59355;52.416;13.412;2023-02-24T09:22:05;6.90;;;3.50;;
2848;SDS011;59355;52.416;13.412;2023-02-24T09:24:42;4.60;;;3.17;;
2848;SDS011;59355;52.416;13.412;2023-02-24T09:27:07;13.37;;;4.07;;
2848;SDS011;59355;52.416;13.412;2023-02-24T09:29:41;5.87;;;3.63;;
2848;SDS011;59355;52.416;13.412;2023-02-24T09:32:14;4.50;;;3.00;;
2848;SDS011;59355;52.416;13.412;2023-02-24T09:34:40;5.70;;;3.93;;
2848;SDS011;59355;52.416;13.412;2023-02-24T09:37:13;6.80;;;4.67;;
2848;SDS011;59355;52.416;13.412;2023-02-24T09:39:51;10.10;;;3.97;;
2848;SDS011;59355;52.416;13.412;2023-02-24T09:42:22;4.63;;;3.00;;
2848;SDS011;59355;52.416;13.412;2023-02-24T09:44:54;21.97;;;4.73;;
2848;SDS011;59355;52.416;13.412;2023-02-24T09:50:24;5.57;;;2.97;;
2848;SDS011;59355;52.416;13.412;2023-02-24T09:53:02;4.70;;;2.90;;
2848;SDS011;59355;52.416;13.412;2023-02-24T09:55:42;5.60;;;2.90;;
2848;SDS011;59355;52.416;13.412;2023-02-24T09:58:35;7.00;;;3.37;;
2848;SDS011;59355;52.416;13.412;2023-02-24T10:04:02;9.80;;;4.17;;
2848;SDS011;59355;52.416;13.412;2023-02-24T10:06:34;7.93;;;2.83;;
2848;SDS011;59355;52.416;13.412;2023-02-24T10:09:08;8.43;;;3.57;;
2848;SDS011;59355;52.416;13.412;2023-02-24T10:11:46;4.80;;;3.20;;
2848;SDS011;59355;52.416;13.412;2023-02-24T10:14:42;10.20;;;3.17;;
2848;SDS011;59355;52.416;13.412;2023-02-24T10:17:17;6.37;;;2.77;;
2848;SDS011;59355;52.416;13.412;2023-02-24T10:19:47;7.43;;;2.70;;
2848;SDS011;59355;52.416;13.412;2023-02-24T10:31:04;5.83;;;2.47;;
2848;SDS011;59355;52.416;13.412;2023-02-24T10:33:37;5.13;;;2.50;;
2848;SDS011;59355;52.416;13.412;2023-02-24T10:36:17;4.63;;;2.47;;
2848;SDS011;59355;52.416;13.412;2023-02-24T10:38:43;4.27;;;3.60;;
2848;SDS011;59355;52.416;13.412;2023-02-24T10:41:09;6.50;;;2.30;;
2848;SDS011;59355;52.416;13.412;2023-02-24T10:43:36;4.13;;;2.33;;
2848;SDS011;59355;52.416;13.412;2023-02-24T10:46:17;8.50;;;2.83;;
2848;SDS011;59355;52.416;13.412;2023-02-24T10:49:03;8.97;;;3.23;;
2848;SDS011;59355;52.416;13.412;2023-02-24T10:51:40;3.93;;;2.40;;
2848;SDS011;59355;52.416;13.412;2023-02-24T10:54:12;7.63;;;2.33;;
2848;SDS011;59355;52.416;13.412;2023-02-24T10:57:05;6.83;;;2.40;;
2848;SDS011;59355;52.416;13.412;2023-02-24T11:00:00;6.30;;;2.33;;
2848;SDS011;59355;52.416;13.412;2023-02-24T11:02:32;4.03;;;2.43;;
2848;SDS011;59355;52.416;13.412;2023-02-24T11:05:20;5.60;;;2.60;;
2848;SDS011;59355;52.416;13.412;2023-02-24T11:08:17;5.00;;;2.43;;
2848;SDS011;59355;52.416;13.412;2023-02-24T11:11:20;4.37;;;2.60;;
2848;SDS011;59355;52.416;13.412;2023-02-24T11:13:54;4.07;;;2.60;;
2848;SDS011;59355;52.416;13.412;2023-02-24T11:16:43;4.40;;;2.63;;
2848;SDS011;59355;52.416;13.412;2023-02-24T11:19:32;8.10;;;2.67;;
2848;SDS011;59355;52.416;13.412;2023-02-24T11:22:24;6.07;;;2.67;;
2848;SDS011;59355;52.416;13.412;2023-02-24T11:24:54;4.43;;;3.10;;
2848;SDS011;59355;52.416;13.412;2023-02-24T11:27:20;4.83;;;2.77;;
2848;SDS011;59355;52.416;13.412;2023-02-24T11:32:48;5.40;;;3.60;;
2848;SDS011;59355;52.416;13.412;2023-02-24T11:37:56;4.23;;;3.27;;
2848;SDS011;59355;52.416;13.412;2023-02-24T11:40:27;6.33;;;3.43;;
2848;SDS011;59355;52.416;13.412;2023-02-24T11:45:38;5.23;;;3.20;;
2848;SDS011;59355;52.416;13.412;2023-02-24T11:56:00;8.57;;;3.10;;
2848;SDS011;59355;52.416;13.412;2023-02-24T11:58:37;3.40;;;3.10;;
2848;SDS011;59355;52.416;13.412;2023-02-24T12:01:13;4.37;;;3.03;;
2848;SDS011;59355;52.416;13.412;2023-02-24T12:06:40;8.37;;;3.40;;
2848;SDS011;59355;52.416;13.412;2023-02-24T12:09:12;3.93;;;2.97;;
2848;SDS011;59355;52.416;13.412;2023-02-24T12:17:33;5.83;;;2.80;;
2848;SDS011;59355;52.416;13.412;2023-02-24T12:20:03;4.30;;;2.40;;
2848;SDS011;59355;52.416;13.412;2023-02-24T12:22:39;13.37;;;3.60;;
2848;SDS011;59355;52.416;13.412;2023-02-24T12:25:10;7.60;;;2.93;;
2848;SDS011;59355;52.416;13.412;2023-02-24T12:27:45;5.00;;;4.10;;
2848;SDS011;59355;52.416;13.412;2023-02-24T12:30:42;4.70;;;2.87;;
2848;SDS011;59355;52.416;13.412;2023-02-24T12:36:41;9.77;;;3.17;;
2848;SDS011;59355;52.416;13.412;2023-02-24T12:39:27;3.27;;;2.80;;
2848;SDS011;59355;52.416;13.412;2023-02-24T12:47:24;5.93;;;3.03;;
2848;SDS011;59355;52.416;13.412;2023-02-24T12:52:51;5.77;;;3.97;;
2848;SDS011;59355;52.416;13.412;2023-02-24T12:55:22;8.33;;;4.27;;
2848;SDS011;59355;52.416;13.412;2023-02-24T12:57:54;9.27;;;4.50;;
2848;SDS011;59355;52.416;13.412;2023-02-24T13:00:32;4.57;;;4.07;;
2848;SDS011;59355;52.416;13.412;2023-02-24T13:03:20;7.60;;;3.90;;
2848;SDS011;59355;52.416;13.412;2023-02-24T13:11:17;7.40;;;3.87;;
2848;SDS011;59355;52.416;13.412;2023-02-24T13:13:54;9.53;;;3.77;;
2848;SDS011;59355;52.416;13.412;2023-02-24T13:16:28;5.90;;;4.20;;
2848;SDS011;59355;52.416;13.412;2023-02-24T13:19:02;6.40;;;4.30;;
2848;SDS011;59355;52.416;13.412;2023-02-24T13:21:29;7.97;;;3.80;;
2848;SDS011;59355;52.416;13.412;2023-02-24T13:23:55;7.57;;;3.93;;
2848;SDS011;59355;52.416;13.412;2023-02-24T13:26:22;5.13;;;3.30;;
2848;SDS011;59355;52.416;13.412;2023-02-24T13:28:55;8.23;;;4.27;;
2848;SDS011;59355;52.416;13.412;2023-02-24T13:31:25;3.90;;;3.40;;
2848;SDS011;59355;52.416;13.412;2023-02-24T13:33:51;9.63;;;3.63;;
2848;SDS011;59355;52.416;13.412;2023-02-24T13:39:03;3.87;;;3.50;;
2848;SDS011;59355;52.416;13.412;2023-02-24T13:43:57;4.77;;;3.10;;
2848;SDS011;59355;52.416;13.412;2023-02-24T13:46:24;8.23;;;3.50;;
2848;SDS011;59355;52.416;13.412;2023-02-24T13:48:57;5.77;;;3.90;;
2848;SDS011;59355;52.416;13.412;2023-02-24T13:51:47;5.03;;;3.20;;
2848;SDS011;59355;52.416;13.412;2023-02-24T14:02:35;3.40;;;2.90;;
2848;SDS011;59355;52.416;13.412;2023-02-24T14:05:07;7.80;;;3.63;;
2848;SDS011;59355;52.416;13.412;2023-02-24T14:07:41;5.33;;;4.80;;
2848;SDS011;59355;52.416;13.412;2023-02-24T14:10:17;4.77;;;4.10;;
2848;SDS011;59355;52.416;13.412;2023-02-24T14:12:48;8.43;;;4.10;;
2848;SDS011;59355;52.416;13.412;2023-02-24T14:15:18;5.50;;;2.73;;
2848;SDS011;59355;52.416;13.412;2023-02-24T14:17:52;5.03;;;3.27;;
2848;SDS011;59355;52.416;13.412;2023-02-24T14:20:20;7.33;;;3.87;;
2848;SDS011;59355;52.416;13.412;2023-02-24T14:22:50;7.40;;;4.13;;
2848;SDS011;59355;52.416;13.412;2023-02-24T14:25:21;3.50;;;3.10;;
2848;SDS011;59355;52.416;13.412;2023-02-24T14:27:48;4.40;;;3.50;;
2848;SDS011;59355;52.416;13.412;2023-02-24T14:30:35;4.70;;;3.33;;
2848;SDS011;59355;52.416;13.412;2023-02-24T14:33:02;5.73;;;3.70;;
2848;SDS011;59355;52.416;13.412;2023-02-24T14:35:37;5.27;;;3.60;;
2848;SDS011;59355;52.416;13.412;2023-02-24T14:38:06;4.93;;;3.40;;
2848;SDS011;59355;52.416;13.412;2023-02-24T14:40:31;4.27;;;3.13;;
2848;SDS011;59355;52.416;13.412;2023-02-24T14:42:57;4.10;;;3.00;;
2848;SDS011;59355;52.416;13.412;2023-02-24T14:45:24;3.60;;;3.30;;
2848;SDS011;59355;52.416;13.412;2023-02-24T14:47:52;4.03;;;3.73;;
2848;SDS011;59355;52.416;13.412;2023-02-24T14:50:19;7.00;;;3.50;;
2848;SDS011;59355;52.416;13.412;2023-02-24T14:52:57;4.47;;;3.50;;
2848;SDS011;59355;52.416;13.412;2023-02-24T14:55:30;4.47;;;4.07;;
2848;SDS011;59355;52.416;13.412;2023-02-24T14:58:01;4.87;;;3.90;;
2848;SDS011;59355;52.416;13.412;2023-02-24T15:00:32;4.93;;;3.20;;
2848;SDS011;59355;52.416;13.412;2023-02-24T15:05:46;3.80;;;3.43;;
2848;SDS011;59355;52.416;13.412;2023-02-24T15:08:20;3.23;;;2.93;;
2848;SDS011;59355;52.416;13.412;2023-02-24T15:10:51;3.77;;;3.47;;
2848;SDS011;59355;52.416;13.412;2023-02-24T15:13:17;3.67;;;3.37;;
2848;SDS011;59355;52.416;13.412;2023-02-24T15:16:13;3.53;;;3.07;;
2848;SDS011;59355;52.416;13.412;2023-02-24T15:18:43;5.73;;;3.47;;
2848;SDS011;59355;52.416;13.412;2023-02-24T15:21:22;3.63;;;3.33;;
2848;SDS011;59355;52.416;13.412;2023-02-24T15:23:59;3.70;;;3.13;;
2848;SDS011;59355;52.416;13.412;2023-02-24T15:26:27;3.47;;;3.17;;
2848;SDS011;59355;52.416;13.412;2023-02-24T15:28:57;3.57;;;3.20;;
2848;SDS011;59355;52.416;13.412;2023-02-24T15:31:24;4.07;;;3.10;;
2848;SDS011;59355;52.416;13.412;2023-02-24T15:33:53;4.33;;;3.70;;
2848;SDS011;59355;52.416;13.412;2023-02-24T15:36:22;3.57;;;3.27;;
2848;SDS011;59355;52.416;13.412;2023-02-24T15:39:07;4.00;;;2.97;;
2848;SDS011;59355;52.416;13.412;2023-02-24T15:41:47;5.33;;;3.77;;
2848;SDS011;59355;52.416;13.412;2023-02-24T15:44:28;6.50;;;3.80;;
2848;SDS011;59355;52.416;13.412;2023-02-24T15:46:56;4.70;;;3.53;;
2848;SDS011;59355;52.416;13.412;2023-02-24T15:49:22;4.43;;;3.47;;
2848;SDS011;59355;52.416;13.412;2023-02-24T15:51:48;4.17;;;3.27;;
2848;SDS011;59355;52.416;13.412;2023-02-24T15:54:19;4.53;;;4.10;;
2848;SDS011;59355;52.416;13.412;2023-02-24T15:56:50;4.80;;;4.30;;
2848;SDS011;59355;52.416;13.412;2023-02-24T15:59:16;5.20;;;4.20;;
2848;SDS011;59355;52.416;13.412;2023-02-24T16:01:42;4.70;;;3.90;;
2848;SDS011;59355;52.416;13.412;2023-02-24T16:04:08;4.97;;;4.47;;
2848;SDS011;59355;52.416;13.412;2023-02-24T16:06:33;7.57;;;5.57;;
2848;SDS011;59355;52.416;13.412;2023-02-24T16:09:05;5.60;;;5.10;;
2848;SDS011;59355;52.416;13.412;2023-02-24T16:11:31;6.83;;;5.23;;
2848;SDS011;59355;52.416;13.412;2023-02-24T16:13:59;6.20;;;5.53;;
2848;SDS011;59355;52.416;13.412;2023-02-24T16:16:24;8.20;;;4.90;;
2848;SDS011;59355;52.416;13.412;2023-02-24T16:18:50;6.53;;;5.77;;
2848;SDS011;59355;52.416;13.412;2023-02-24T16:21:16;6.10;;;5.43;;
2848;SDS011;59355;52.416;13.412;2023-02-24T16:23:41;6.93;;;5.80;;
2848;SDS011;59355;52.416;13.412;2023-02-24T16:26:14;6.70;;;6.00;;
2848;SDS011;59355;52.416;13.412;2023-02-24T16:28:42;6.60;;;6.00;;
2848;SDS011;59355;52.416;13.412;2023-02-24T16:31:08;7.20;;;6.50;;
2848;SDS011;59355;52.416;13.412;2023-02-24T16:33:33;7.50;;;6.80;;
2848;SDS011;59355;52.416;13.412;2023-02-24T16:35:59;7.03;;;6.33;;
2848;SDS011;59355;52.416;13.412;2023-02-24T16:38:24;7.37;;;6.47;;
2848;SDS011;59355;52.416;13.412;2023-02-24T16:40:50;9.07;;;6.90;;
2848;SDS011;59355;52.416;13.412;2023-02-24T16:43:16;7.83;;;6.70;;
2848;SDS011;59355;52.416;13.412;2023-02-24T16:45:41;8.97;;;7.63;;
2848;SDS011;59355;52.416;13.412;2023-02-24T16:48:08;8.20;;;7.37;;
2848;SDS011;59355;52.416;13.412;2023-02-24T16:50:43;9.10;;;8.20;;
2848;SDS011;59355;52.416;13.412;2023-02-24T16:53:11;9.60;;;8.50;;
2848;SDS011;59355;52.416;13.412;2023-02-24T16:55:39;8.13;;;7.33;;